2OI6 weather

Park Medical Center Heliport
Columbus, Ohio, United States

Public forecast

Using degrees Fahrenheit for public forecast. Weather courtesy of forecast.io.

Closest aviation weather report (METAR) to Park Medical Center Heliport

Closest report is John Glenn Columbus International Airport, 3.6 nm (6.8 km) ENE. Retrieved 2020/06/04 10:26 UTC (15 minutes ago):

KCMH 041026Z 19003KT 10SM -RA SCT050 BKN100 BKN120 21/18 A2984 RMK AO2 LTG DSNT N AND NE RAB0958 TSB0953E25 CIG 080 NW TS MOV E P0002 T02060183

Closest aviation forecast (TAF) to Park Medical Center Heliport

Closest forecast is John Glenn Columbus International Airport, 3.6 nm (6.8 km) ENE. Retrieved 2020/06/04 06:45 UTC (4 hours ago):

TAF KCMH 040542Z 0406/0506 16004KT P6SM BKN100 FM040700 16004KT P6SM VCSH SCT060 BKN100 FM041000 17004KT P6SM BKN100 FM041400 21007KT P6SM FEW050 BKN250 FM041800 22009KT P6SM VCTS BKN050CB FM042300 20005KT P6SM SCT060 BKN100